createdAt,value
2023-02-20T00:00:31.496Z,0.47
2023-02-20T00:02:58.509Z,0.33
2023-02-20T00:05:25.405Z,0.60
2023-02-20T00:07:52.155Z,0.50
2023-02-20T00:10:19.531Z,0.30
2023-02-20T00:12:46.345Z,0.30
2023-02-20T00:15:15.225Z,0.63
2023-02-20T00:17:47.428Z,0.30
2023-02-20T00:20:20.204Z,0.40
2023-02-20T00:22:46.968Z,0.40
2023-02-20T00:25:15.541Z,0.83
2023-02-20T00:27:42.986Z,0.37
2023-02-20T00:30:18.452Z,0.30
2023-02-20T00:32:46.695Z,0.30
2023-02-20T00:35:13.514Z,0.60
2023-02-20T00:37:40.349Z,0.40
2023-02-20T00:40:07.610Z,0.40
2023-02-20T00:42:34.280Z,0.70
2023-02-20T00:45:01.091Z,0.50
2023-02-20T00:47:27.783Z,0.40
2023-02-20T00:49:54.503Z,0.40
2023-02-20T00:52:21.229Z,0.53
2023-02-20T00:54:47.914Z,0.40
2023-02-20T00:57:14.661Z,0.80
2023-02-20T00:59:41.512Z,0.90
2023-02-20T01:02:09.094Z,0.43
2023-02-20T01:04:35.857Z,0.60
2023-02-20T01:07:02.582Z,0.57
2023-02-20T01:09:29.309Z,1.20
2023-02-20T01:11:56.078Z,0.60
2023-02-20T01:14:22.885Z,0.70
2023-02-20T01:16:52.437Z,0.60
2023-02-20T01:19:21.467Z,0.40
2023-02-20T01:21:50.937Z,0.47
2023-02-20T01:24:18.633Z,0.80
2023-02-20T01:26:47.301Z,0.40
2023-02-20T01:29:14.275Z,0.30
2023-02-20T01:31:41.014Z,0.30
2023-02-20T01:34:07.776Z,0.50
2023-02-20T01:36:34.668Z,0.40
2023-02-20T01:39:01.444Z,0.50
2023-02-20T01:41:28.194Z,0.47
2023-02-20T01:43:55.476Z,0.37
2023-02-20T01:46:28.153Z,0.40
2023-02-20T01:49:15.844Z,0.83
2023-02-20T01:51:48.136Z,1.33
2023-02-20T01:54:17.232Z,0.70
2023-02-20T01:56:45.740Z,0.67
2023-02-20T01:59:13.211Z,0.50
2023-02-20T02:01:39.997Z,0.63
2023-02-20T02:04:09.152Z,0.53
2023-02-20T02:06:39.563Z,0.60
2023-02-20T02:09:23.826Z,0.63
2023-02-20T02:11:50.932Z,0.40
2023-02-20T02:14:18.630Z,0.30
2023-02-20T02:17:01.566Z,1.43
2023-02-20T02:19:47.131Z,0.63
2023-02-20T02:22:48.210Z,0.40
2023-02-20T02:25:33.034Z,0.50
2023-02-20T02:28:18.554Z,1.40
2023-02-20T02:31:17.651Z,0.53
2023-02-20T02:34:08.744Z,0.67
2023-02-20T02:36:49.004Z,0.47
2023-02-20T02:39:34.254Z,0.60
2023-02-20T02:42:11.275Z,0.60
2023-02-20T02:44:51.379Z,0.70
2023-02-20T02:47:24.153Z,0.47
2023-02-20T02:50:03.624Z,0.70
2023-02-20T02:52:46.825Z,0.50
2023-02-20T02:55:16.980Z,0.53
2023-02-20T02:57:43.719Z,0.57
2023-02-20T03:00:14.848Z,0.80
2023-02-20T03:02:50.478Z,0.60
2023-02-20T03:05:20.393Z,0.90
2023-02-20T03:07:50.293Z,0.33
2023-02-20T03:10:20.836Z,0.50
2023-02-20T03:12:50.865Z,0.60
2023-02-20T03:15:33.923Z,0.70
2023-02-20T03:18:12.767Z,1.27
2023-02-20T03:20:48.947Z,0.57
2023-02-20T03:23:21.132Z,0.70
2023-02-20T03:25:59.797Z,0.70
2023-02-20T03:28:39.829Z,0.73
2023-02-20T03:31:14.710Z,0.43
2023-02-20T03:34:06.362Z,0.87
2023-02-20T03:36:57.684Z,0.93
2023-02-20T03:39:47.556Z,0.73
2023-02-20T03:42:34.234Z,0.40
2023-02-20T03:45:01.742Z,0.60
2023-02-20T03:47:29.332Z,0.30
2023-02-20T03:49:56.714Z,0.60
2023-02-20T03:52:23.780Z,0.80
2023-02-20T03:54:50.722Z,0.60
2023-02-20T03:57:27.571Z,0.70
2023-02-20T03:59:56.892Z,0.70
2023-02-20T04:02:31.053Z,0.80
2023-02-20T04:05:01.676Z,0.73
2023-02-20T04:07:33.963Z,0.70
2023-02-20T04:10:04.178Z,0.50
2023-02-20T04:12:36.992Z,0.47
2023-02-20T04:15:05.778Z,0.70
2023-02-20T04:17:37.742Z,1.17
2023-02-20T04:20:05.180Z,0.63
2023-02-20T04:22:35.647Z,0.70
2023-02-20T04:25:30.166Z,0.87
2023-02-20T04:27:57.138Z,0.67
2023-02-20T04:30:24.024Z,1.20
2023-02-20T04:32:50.747Z,0.90
2023-02-20T04:35:19.347Z,1.00
2023-02-20T04:37:46.525Z,1.10
2023-02-20T04:40:15.806Z,0.67
2023-02-20T04:42:42.606Z,0.80
2023-02-20T04:45:11.605Z,0.70
2023-02-20T04:47:38.286Z,1.07
2023-02-20T04:50:05.595Z,1.03
2023-02-20T04:52:32.281Z,0.70
2023-02-20T04:54:58.992Z,0.83
2023-02-20T04:57:25.868Z,0.60
2023-02-20T04:59:52.610Z,0.60
2023-02-20T05:02:19.264Z,0.90
2023-02-20T05:04:46.022Z,0.80
2023-02-20T05:07:12.806Z,1.13
2023-02-20T05:09:39.567Z,0.77
2023-02-20T05:12:06.617Z,1.33
2023-02-20T05:14:33.341Z,0.70
2023-02-20T05:17:00.159Z,1.23
2023-02-20T05:19:26.919Z,0.80
2023-02-20T05:22:12.037Z,0.43
2023-02-20T05:24:38.634Z,0.80
2023-02-20T05:27:05.247Z,0.97
2023-02-20T05:29:31.850Z,0.77
2023-02-20T05:31:58.430Z,0.90
2023-02-20T05:34:25.905Z,0.60
2023-02-20T05:36:53.590Z,1.20
2023-02-20T05:39:20.937Z,0.57
2023-02-20T05:41:49.230Z,1.00
2023-02-20T05:44:15.941Z,0.90
2023-02-20T05:46:43.089Z,1.20
2023-02-20T05:49:10.210Z,0.90
2023-02-20T05:51:36.914Z,0.90
2023-02-20T05:54:04.645Z,1.30
2023-02-20T05:56:33.061Z,0.87
2023-02-20T05:59:00.426Z,1.00
2023-02-20T06:01:29.638Z,1.00
2023-02-20T06:03:56.395Z,1.00
2023-02-20T06:06:23.197Z,0.60
2023-02-20T06:08:49.955Z,1.00
2023-02-20T06:11:16.860Z,1.43
2023-02-20T06:13:44.641Z,1.27
2023-02-20T06:16:11.983Z,0.80
2023-02-20T06:18:40.605Z,0.90
2023-02-20T06:21:10.955Z,0.70
2023-02-20T06:23:38.658Z,1.00
2023-02-20T06:26:06.794Z,0.80
2023-02-20T06:28:33.863Z,1.43
2023-02-20T06:31:02.006Z,0.70
2023-02-20T06:33:29.212Z,1.00
2023-02-20T06:35:56.333Z,0.50
2023-02-20T06:38:23.262Z,1.07
2023-02-20T06:40:50.232Z,1.27
2023-02-20T06:43:17.125Z,0.77
2023-02-20T06:45:44.445Z,1.00
2023-02-20T06:48:11.664Z,0.87
2023-02-20T06:50:38.279Z,1.10
2023-02-20T06:53:05.064Z,0.90
2023-02-20T06:55:32.957Z,0.90
2023-02-20T06:57:59.884Z,1.07
2023-02-20T07:00:26.846Z,1.50
2023-02-20T07:02:53.781Z,1.50
2023-02-20T07:05:20.559Z,1.40
2023-02-20T07:07:47.780Z,0.73
2023-02-20T07:10:14.598Z,1.10
2023-02-20T07:12:41.358Z,0.90
2023-02-20T07:15:08.768Z,1.30
2023-02-20T07:17:35.552Z,1.33
2023-02-20T07:20:02.491Z,0.80
2023-02-20T07:22:29.290Z,1.93
2023-02-20T07:24:56.110Z,0.93
2023-02-20T07:27:23.259Z,1.87
2023-02-20T07:29:51.067Z,1.57
2023-02-20T07:32:20.798Z,1.07
2023-02-20T07:35:02.311Z,1.60
2023-02-20T07:37:30.041Z,1.03
2023-02-20T07:39:56.841Z,0.93
2023-02-20T07:42:23.590Z,0.90
2023-02-20T07:44:50.310Z,0.77
2023-02-20T07:47:17.067Z,1.03
2023-02-20T07:49:44.161Z,1.77
2023-02-20T07:52:10.901Z,1.17
2023-02-20T07:54:38.399Z,0.93
2023-02-20T07:57:05.154Z,1.10
2023-02-20T07:59:31.933Z,1.20
2023-02-20T08:01:58.673Z,0.70
2023-02-20T08:04:25.406Z,1.10
2023-02-20T08:06:52.116Z,0.93
2023-02-20T08:09:19.595Z,0.97
2023-02-20T08:11:46.338Z,0.70
2023-02-20T08:14:14.936Z,0.60
2023-02-20T08:16:41.750Z,0.80
2023-02-20T08:19:08.616Z,0.60
2023-02-20T08:21:35.431Z,0.80
2023-02-20T08:24:02.196Z,1.37
2023-02-20T08:26:29.310Z,0.80
2023-02-20T08:28:56.172Z,0.83
2023-02-20T08:31:32.232Z,1.30
2023-02-20T08:33:59.725Z,1.00
2023-02-20T08:36:26.486Z,0.77
2023-02-20T08:38:53.285Z,1.57
2023-02-20T08:41:20.299Z,0.77
2023-02-20T08:43:47.092Z,0.70
2023-02-20T08:46:14.228Z,0.63
2023-02-20T08:48:41.838Z,0.80
2023-02-20T08:51:09.027Z,0.67
2023-02-20T08:53:38.513Z,1.00
2023-02-20T08:56:06.755Z,0.80
2023-02-20T08:58:33.619Z,0.53
2023-02-20T09:01:00.318Z,0.97
2023-02-20T09:03:27.366Z,0.90
2023-02-20T09:05:54.313Z,1.27
2023-02-20T09:08:21.064Z,0.77
2023-02-20T09:10:48.180Z,0.83
2023-02-20T09:13:15.398Z,1.17
2023-02-20T09:15:42.112Z,0.80
2023-02-20T09:18:12.425Z,0.80
2023-02-20T09:20:40.020Z,0.60
2023-02-20T09:23:07.279Z,0.80
2023-02-20T09:25:34.325Z,1.47
2023-02-20T09:28:01.083Z,0.73
2023-02-20T09:30:28.162Z,0.80
2023-02-20T09:32:55.168Z,0.50
2023-02-20T09:35:27.489Z,1.30
2023-02-20T09:37:54.568Z,1.00
2023-02-20T09:40:23.666Z,1.17
2023-02-20T09:43:02.542Z,0.53
2023-02-20T09:45:33.229Z,0.60
2023-02-20T09:48:09.704Z,0.90
2023-02-20T09:50:48.002Z,1.10
2023-02-20T09:53:37.988Z,0.83
2023-02-20T09:56:06.304Z,1.33
2023-02-20T09:58:46.109Z,0.90
2023-02-20T10:01:16.165Z,0.80
2023-02-20T10:03:57.730Z,0.90
2023-02-20T10:06:27.851Z,0.97
2023-02-20T10:08:55.128Z,0.70
2023-02-20T10:11:43.803Z,0.70
2023-02-20T10:14:53.477Z,0.60
2023-02-20T10:17:35.528Z,0.70
2023-02-20T10:20:24.647Z,0.90
2023-02-20T10:23:04.908Z,1.10
2023-02-20T10:25:35.605Z,0.50
2023-02-20T10:28:09.524Z,0.87
2023-02-20T10:30:37.631Z,0.63
2023-02-20T10:33:19.902Z,0.77
2023-02-20T10:36:11.831Z,0.67
2023-02-20T10:38:47.781Z,0.80
2023-02-20T10:41:17.444Z,0.43
2023-02-20T10:44:01.774Z,0.40
2023-02-20T10:46:48.832Z,0.90
2023-02-20T10:49:22.213Z,0.80
2023-02-20T10:51:50.879Z,0.77
2023-02-20T10:54:29.212Z,0.90
2023-02-20T10:57:34.172Z,1.00
2023-02-20T11:00:10.041Z,0.83
2023-02-20T11:02:42.227Z,0.80
2023-02-20T11:05:12.009Z,0.83
2023-02-20T11:07:38.987Z,1.13
2023-02-20T11:10:06.128Z,0.83
2023-02-20T11:12:39.174Z,1.20
2023-02-20T11:15:18.413Z,0.70
2023-02-20T11:17:46.752Z,1.20
2023-02-20T11:20:32.379Z,1.07
2023-02-20T11:23:01.631Z,1.00
2023-02-20T11:25:37.485Z,3.50
2023-02-20T11:28:14.292Z,1.33
2023-02-20T11:30:43.339Z,0.60
2023-02-20T11:33:22.000Z,0.50
2023-02-20T11:35:52.060Z,0.60
2023-02-20T11:38:21.823Z,1.00
2023-02-20T11:40:55.073Z,0.77
2023-02-20T11:43:27.362Z,1.00
2023-02-20T11:46:16.075Z,0.60
2023-02-20T11:49:05.639Z,0.70
2023-02-20T11:51:33.473Z,1.07
2023-02-20T11:54:21.500Z,0.63
2023-02-20T11:57:08.934Z,0.87
2023-02-20T11:59:42.908Z,1.40
2023-02-20T12:02:22.682Z,0.90
2023-02-20T12:05:08.760Z,0.70
2023-02-20T12:07:41.742Z,1.10
2023-02-20T12:10:26.130Z,0.70
2023-02-20T12:12:53.346Z,1.10
2023-02-20T12:15:22.580Z,0.63
2023-02-20T12:18:18.650Z,1.23
2023-02-20T12:20:50.315Z,0.60
2023-02-20T12:23:41.165Z,1.50
2023-02-20T12:26:16.947Z,1.40
2023-02-20T12:29:15.764Z,0.97
2023-02-20T12:31:45.685Z,1.07
2023-02-20T12:34:35.182Z,2.37
2023-02-20T12:37:20.886Z,0.70
2023-02-20T12:39:50.336Z,0.87
2023-02-20T12:42:26.180Z,0.53
2023-02-20T12:45:17.759Z,1.50
2023-02-20T12:47:45.605Z,1.23
2023-02-20T12:50:48.265Z,0.90
2023-02-20T12:53:35.928Z,0.77
2023-02-20T12:56:24.877Z,1.20
2023-02-20T12:59:24.632Z,0.40
2023-02-20T13:01:52.246Z,0.53
2023-02-20T13:04:42.886Z,0.50
2023-02-20T13:07:24.253Z,0.70
2023-02-20T13:09:57.168Z,0.50
2023-02-20T13:12:25.061Z,0.60
2023-02-20T13:15:20.656Z,0.73
2023-02-20T13:17:55.157Z,0.40
2023-02-20T13:20:27.963Z,0.80
2023-02-20T13:23:03.916Z,0.50
2023-02-20T13:25:33.725Z,0.33
2023-02-20T13:28:12.633Z,0.40
2023-02-20T13:30:42.649Z,0.70
2023-02-20T13:33:39.170Z,0.50
2023-02-20T13:36:07.341Z,0.50
2023-02-20T13:38:34.124Z,0.50
2023-02-20T13:41:06.518Z,0.80
2023-02-20T13:43:37.435Z,0.43
2023-02-20T13:46:15.068Z,0.20
2023-02-20T13:48:50.611Z,0.87
2023-02-20T13:51:21.923Z,0.50
2023-02-20T13:53:49.808Z,0.40
2023-02-20T13:56:26.220Z,0.50
2023-02-20T13:58:55.239Z,0.83
2023-02-20T14:01:22.445Z,1.50
2023-02-20T14:04:03.806Z,0.60
2023-02-20T14:06:31.427Z,0.40
2023-02-20T14:09:10.056Z,0.40
2023-02-20T14:11:39.417Z,0.60
2023-02-20T14:14:11.746Z,0.40
2023-02-20T14:16:44.327Z,0.50
2023-02-20T14:19:22.759Z,0.70
2023-02-20T14:21:49.710Z,1.10
2023-02-20T14:24:24.361Z,0.70
2023-02-20T14:26:57.760Z,0.93
2023-02-20T14:29:31.950Z,0.77
2023-02-20T14:32:00.728Z,0.83
2023-02-20T14:34:49.356Z,0.40
2023-02-20T14:37:28.170Z,0.73
2023-02-20T14:40:00.270Z,0.57
2023-02-20T14:42:27.099Z,0.80
2023-02-20T14:45:05.965Z,0.67
2023-02-20T14:47:33.151Z,0.50
2023-02-20T14:50:30.308Z,1.00
2023-02-20T14:53:16.926Z,0.97
2023-02-20T14:55:44.129Z,1.77
2023-02-20T14:58:15.604Z,0.80
2023-02-20T15:00:44.527Z,0.90
2023-02-20T15:03:29.720Z,1.40
2023-02-20T15:06:01.515Z,2.30
2023-02-20T15:08:33.375Z,0.60
2023-02-20T15:11:08.365Z,0.50
2023-02-20T15:13:37.370Z,0.60
2023-02-20T15:16:08.685Z,0.70
2023-02-20T15:18:43.602Z,1.00
2023-02-20T15:21:16.217Z,0.60
2023-02-20T15:23:46.517Z,0.93
2023-02-20T15:26:34.995Z,0.73
2023-02-20T15:29:23.168Z,0.40
2023-02-20T15:32:00.453Z,0.40
2023-02-20T15:34:30.411Z,0.43
2023-02-20T15:36:58.974Z,1.40
2023-02-20T15:39:25.686Z,0.90
2023-02-20T15:44:25.426Z,0.60
2023-02-20T15:46:52.749Z,1.67
2023-02-20T15:49:21.004Z,0.43
2023-02-20T15:51:48.597Z,0.30
2023-02-20T15:54:17.458Z,0.53
2023-02-20T15:56:44.378Z,0.63
2023-02-20T15:59:12.299Z,0.67
2023-02-20T16:01:40.276Z,0.63
2023-02-20T16:04:15.717Z,0.63
2023-02-20T16:06:43.597Z,0.30
2023-02-20T16:09:10.781Z,0.40
2023-02-20T16:11:44.141Z,0.43
2023-02-20T16:14:14.131Z,0.50
2023-02-20T16:16:45.731Z,0.60
2023-02-20T16:19:33.444Z,0.73
2023-02-20T16:22:07.061Z,1.30
2023-02-20T16:24:36.747Z,0.67
2023-02-20T16:27:07.658Z,0.40
2023-02-20T16:29:39.291Z,0.43
2023-02-20T16:32:08.860Z,1.50
2023-02-20T16:34:38.043Z,0.60
2023-02-20T16:37:04.980Z,0.47
2023-02-20T16:39:31.837Z,0.63
2023-02-20T16:41:59.274Z,0.40
2023-02-20T16:44:39.152Z,0.63
2023-02-20T16:47:06.366Z,0.40
2023-02-20T16:49:37.498Z,0.83
2023-02-20T16:52:17.714Z,0.50
2023-02-20T16:54:46.810Z,0.83
2023-02-20T16:57:13.789Z,0.73
2023-02-20T16:59:41.999Z,1.23
2023-02-20T17:02:15.336Z,0.97
2023-02-20T17:04:42.243Z,1.70
2023-02-20T17:07:10.527Z,1.40
2023-02-20T17:09:44.413Z,0.63
2023-02-20T17:12:16.019Z,0.63
2023-02-20T17:14:43.429Z,0.83
2023-02-20T17:17:10.610Z,0.60
2023-02-20T17:19:39.633Z,1.10
2023-02-20T17:22:07.226Z,2.10
2023-02-20T17:24:34.030Z,1.70
2023-02-20T17:27:01.791Z,1.33
2023-02-20T17:29:28.582Z,1.13
2023-02-20T17:31:55.500Z,3.20
2023-02-20T17:34:22.431Z,5.00
2023-02-20T17:36:49.606Z,5.60
2023-02-20T17:39:21.896Z,7.63
2023-02-20T17:41:50.065Z,5.30
2023-02-20T17:44:18.821Z,2.77
2023-02-20T17:46:45.721Z,2.10
2023-02-20T17:49:13.230Z,1.97
2023-02-20T17:51:40.006Z,1.60
2023-02-20T17:54:06.821Z,2.93
2023-02-20T17:56:33.550Z,1.30
2023-02-20T17:59:00.349Z,1.60
2023-02-20T18:01:27.481Z,12.20
2023-02-20T18:03:57.112Z,10.10
2023-02-20T18:06:23.908Z,6.47
2023-02-20T18:08:50.934Z,2.90
2023-02-20T18:11:17.963Z,2.77
2023-02-20T18:13:44.831Z,1.43
2023-02-20T18:16:11.640Z,2.77
2023-02-20T18:18:38.446Z,1.80
2023-02-20T18:21:05.314Z,1.87
2023-02-20T18:23:32.158Z,1.47
2023-02-20T18:25:58.851Z,1.70
2023-02-20T18:28:25.669Z,1.80
2023-02-20T18:30:52.375Z,1.57
2023-02-20T18:33:19.101Z,2.90
2023-02-20T18:35:50.611Z,2.30
2023-02-20T18:38:25.649Z,2.53
2023-02-20T18:40:52.366Z,2.93
2023-02-20T18:43:19.198Z,8.00
2023-02-20T18:45:46.116Z,11.53
2023-02-20T18:48:12.843Z,11.90
2023-02-20T18:50:39.623Z,20.10
2023-02-20T18:53:06.531Z,15.70
2023-02-20T18:55:33.417Z,11.53
2023-02-20T18:58:00.444Z,8.23
2023-02-20T19:00:29.481Z,7.17
2023-02-20T19:02:58.342Z,7.73
2023-02-20T19:05:25.584Z,4.67
2023-02-20T19:07:52.450Z,1.70
2023-02-20T19:10:23.972Z,0.80
2023-02-20T19:12:51.628Z,1.13
2023-02-20T19:15:19.253Z,1.50
2023-02-20T19:17:47.040Z,1.07
2023-02-20T19:20:28.622Z,2.03
2023-02-20T19:22:56.252Z,2.47
2023-02-20T19:25:23.328Z,1.90
2023-02-20T19:27:50.090Z,3.50
2023-02-20T19:30:17.653Z,3.90
2023-02-20T19:32:44.430Z,3.00
2023-02-20T19:35:11.426Z,1.80
2023-02-20T19:37:39.133Z,2.13
2023-02-20T19:40:07.362Z,2.20
2023-02-20T19:42:35.166Z,1.43
2023-02-20T19:45:01.940Z,1.70
2023-02-20T19:47:28.720Z,1.00
2023-02-20T19:49:55.477Z,1.00
2023-02-20T19:52:22.102Z,0.73
2023-02-20T19:54:49.377Z,1.13
2023-02-20T19:57:16.156Z,1.23
2023-02-20T19:59:43.028Z,1.60
2023-02-20T20:02:11.412Z,1.40
2023-02-20T20:04:38.171Z,1.37
2023-02-20T20:07:04.973Z,1.67
2023-02-20T20:09:37.338Z,1.40
2023-02-20T20:12:25.886Z,1.50
2023-02-20T20:14:52.501Z,2.10
2023-02-20T20:17:19.209Z,2.10
2023-02-20T20:19:57.970Z,1.70
2023-02-20T20:22:25.329Z,1.20
2023-02-20T20:24:51.994Z,1.10
2023-02-20T20:27:20.969Z,2.10
2023-02-20T20:29:51.086Z,1.80
2023-02-20T20:32:18.969Z,1.50
2023-02-20T20:34:52.045Z,1.53
2023-02-20T20:37:25.561Z,2.50
2023-02-20T20:39:53.765Z,1.70
2023-02-20T20:42:23.725Z,1.63
2023-02-20T20:44:55.410Z,0.93
2023-02-20T20:47:23.001Z,0.80
2023-02-20T20:49:50.093Z,1.40
2023-02-20T20:52:17.234Z,1.67
2023-02-20T20:54:49.017Z,0.70
2023-02-20T20:57:17.516Z,1.20
2023-02-20T20:59:44.246Z,1.13
2023-02-20T21:02:10.893Z,1.10
2023-02-20T21:04:37.509Z,1.03
2023-02-20T21:07:04.100Z,1.03
2023-02-20T21:09:30.676Z,0.97
2023-02-20T21:11:57.309Z,1.20
2023-02-20T21:14:25.425Z,0.60
2023-02-20T21:16:52.062Z,0.90
2023-02-20T21:19:18.835Z,1.00
2023-02-20T21:21:45.546Z,0.93
2023-02-20T21:24:12.154Z,1.07
2023-02-20T21:26:39.407Z,1.60
2023-02-20T21:29:06.726Z,2.13
2023-02-20T21:31:34.056Z,1.73
2023-02-20T21:34:01.081Z,1.67
2023-02-20T21:36:28.092Z,0.73
2023-02-20T21:38:54.831Z,2.20
2023-02-20T21:41:42.078Z,1.77
2023-02-20T21:44:27.250Z,2.80
2023-02-20T21:46:55.187Z,2.10
2023-02-20T21:49:21.886Z,1.40
2023-02-20T21:51:48.487Z,1.40
2023-02-20T21:54:16.562Z,1.00
2023-02-20T21:56:43.207Z,1.23
2023-02-20T21:59:09.795Z,1.10
2023-02-20T22:01:38.446Z,1.60
2023-02-20T22:04:06.944Z,1.07
2023-02-20T22:06:33.601Z,1.00
2023-02-20T22:09:18.970Z,0.53
2023-02-20T22:12:04.469Z,0.60
2023-02-20T22:14:49.793Z,0.80
2023-02-20T22:17:35.023Z,0.80
2023-02-20T22:20:20.480Z,1.20
2023-02-20T22:23:06.020Z,1.33
2023-02-20T22:25:51.037Z,1.97
2023-02-20T22:28:36.279Z,0.70
2023-02-20T22:31:22.797Z,1.20
2023-02-20T22:34:08.224Z,1.00
2023-02-20T22:36:53.415Z,1.53
2023-02-20T22:39:38.779Z,1.20
2023-02-20T22:42:34.373Z,1.00
2023-02-20T22:45:20.486Z,1.90
2023-02-20T22:48:05.745Z,1.27
2023-02-20T22:50:50.723Z,1.37
2023-02-20T22:53:35.634Z,0.97
2023-02-20T22:56:20.571Z,0.90
2023-02-20T22:59:05.498Z,0.90
2023-02-20T23:01:50.698Z,1.20
2023-02-20T23:04:35.941Z,0.73
2023-02-20T23:07:21.032Z,1.20
2023-02-20T23:10:06.218Z,0.67
2023-02-20T23:12:51.440Z,1.57
2023-02-20T23:15:36.420Z,1.93
2023-02-20T23:18:21.610Z,1.33
2023-02-20T23:21:06.540Z,0.90
2023-02-20T23:23:53.131Z,0.70
2023-02-20T23:26:38.534Z,1.87
2023-02-20T23:29:23.443Z,1.80
2023-02-20T23:32:08.618Z,0.83
2023-02-20T23:34:53.794Z,0.80
2023-02-20T23:37:38.877Z,0.70
2023-02-20T23:40:36.060Z,1.23
2023-02-20T23:43:22.918Z,0.90
2023-02-20T23:46:08.527Z,0.77
2023-02-20T23:48:53.591Z,0.60
2023-02-20T23:51:39.152Z,1.37
2023-02-20T23:54:24.603Z,1.43
2023-02-20T23:57:09.962Z,0.90
2023-02-20T23:59:55.074Z,1.00
